Time;durP1;ratioP1;P1;durP2;ratioP2;P2;SDS_P1;SDS_P2;PMS_P1;PMS_P2;Temp;Humidity;BMP_temperature;BMP_pressure;BME280_temperature;BME280_humidity;BME280_pressure;Samples;Min_cycle;Max_cycle;Signal;HPM_P1;HPM_P2
2022/08/02 00:00:15;;;;;;;5.00;1.65;;;;;;;;;;4446329;32;20260;-84
2022/08/02 00:02:41;;;;;;;7.57;2.50;;;;;;;;;;4445281;32;20232;-85
2022/08/02 00:05:08;;;;;;;3.03;2.40;;;;;;;;;;4446601;32;20261;-85
2022/08/02 00:07:34;;;;;;;3.22;2.08;;;;;;;;;;4445204;32;20281;-84
2022/08/02 00:10:02;;;;;;;2.65;2.40;;;;;;;;;;4444947;32;20256;-87
2022/08/02 00:12:27;;;;;;;4.60;2.00;;;;;;;;;;4445057;32;20337;-87
2022/08/02 00:14:53;;;;;;;2.80;2.22;;;;;;;;;;4446459;32;20228;-87
2022/08/02 00:17:19;;;;;;;2.45;2.08;;;;;;;;;;4446666;32;20232;-84
2022/08/02 00:19:45;;;;;;;2.20;1.67;;;;;;;;;;4446328;32;20291;-85
2022/08/02 00:22:10;;;;;;;4.65;2.37;;;;;;;;;;4446413;32;20677;-84
2022/08/02 00:24:36;;;;;;;3.42;2.15;;;;;;;;;;4445660;32;20348;-87
2022/08/02 00:27:07;;;;;;;4.15;1.90;;;;;;;;;;4446084;32;20212;-87
2022/08/02 00:29:33;;;;;;;2.10;1.73;;;;;;;;;;4446015;32;20645;-86
2022/08/02 00:31:58;;;;;;;6.87;2.53;;;;;;;;;;4445056;32;20233;-85
2022/08/02 00:34:24;;;;;;;2.97;2.62;;;;;;;;;;4446269;32;20236;-84
2022/08/02 00:36:50;;;;;;;2.90;2.10;;;;;;;;;;4444791;32;20252;-86
2022/08/02 00:39:20;;;;;;;7.55;2.05;;;;;;;;;;4445403;32;20613;-87
2022/08/02 00:41:51;;;;;;;2.92;1.98;;;;;;;;;;4446374;32;20299;-85
2022/08/02 00:44:19;;;;;;;4.57;2.37;;;;;;;;;;4444570;32;20313;-86
2022/08/02 00:46:46;;;;;;;3.10;2.28;;;;;;;;;;4445937;32;20233;-84
2022/08/02 00:49:12;;;;;;;3.47;2.22;;;;;;;;;;4446184;32;20732;-87
2022/08/02 00:51:40;;;;;;;5.35;2.45;;;;;;;;;;4445808;32;20212;-85
2022/08/02 00:54:06;;;;;;;2.55;2.28;;;;;;;;;;4445139;32;20299;-84
2022/08/02 00:56:32;;;;;;;3.47;1.92;;;;;;;;;;4444723;32;20316;-86
2022/08/02 00:58:57;;;;;;;6.55;2.08;;;;;;;;;;4445717;32;20205;-84
2022/08/02 01:01:38;;;;;;;9.15;2.60;;;;;;;;;;4446082;32;20316;-85
2022/08/02 01:04:06;;;;;;;2.53;2.30;;;;;;;;;;4446136;32;20660;-84
2022/08/02 01:06:33;;;;;;;1.92;1.52;;;;;;;;;;4445992;32;20760;-86
2022/08/02 01:09:00;;;;;;;3.87;2.25;;;;;;;;;;4443960;32;20345;-85
2022/08/02 01:11:27;;;;;;;3.37;2.87;;;;;;;;;;4444651;32;20299;-84
2022/08/02 01:13:57;;;;;;;2.67;2.00;;;;;;;;;;4446094;32;20257;-84
2022/08/02 01:16:27;;;;;;;3.10;2.50;;;;;;;;;;4444724;32;20267;-84
2022/08/02 01:19:01;;;;;;;2.80;2.60;;;;;;;;;;4444738;32;20292;-84
2022/08/02 01:21:42;;;;;;;3.10;2.30;;;;;;;;;;4445690;32;20363;-88
2022/08/02 01:24:13;;;;;;;5.62;2.25;;;;;;;;;;4445188;32;20260;-84
2022/08/02 01:26:44;;;;;;;3.08;2.50;;;;;;;;;;4445745;32;20747;-87
2022/08/02 01:29:26;;;;;;;3.05;2.12;;;;;;;;;;4445773;32;20216;-84
2022/08/02 01:31:57;;;;;;;3.30;2.75;;;;;;;;;;4445708;32;20636;-84
2022/08/02 01:34:41;;;;;;;3.37;2.45;;;;;;;;;;4445933;32;20250;-85
2022/08/02 01:37:18;;;;;;;6.55;2.47;;;;;;;;;;4447193;32;20378;-84
2022/08/02 01:39:48;;;;;;;9.73;2.72;;;;;;;;;;4448102;32;20239;-84
2022/08/02 01:42:14;;;;;;;6.20;2.45;;;;;;;;;;4448788;32;20248;-85
2022/08/02 01:44:42;;;;;;;8.00;2.47;;;;;;;;;;4448200;32;20639;-83
2022/08/02 01:47:19;;;;;;;2.42;1.75;;;;;;;;;;4448272;32;20224;-83
2022/08/02 01:49:48;;;;;;;3.03;2.40;;;;;;;;;;4448521;32;20272;-83
2022/08/02 01:52:21;;;;;;;4.62;1.92;;;;;;;;;;4447965;32;20243;-83
2022/08/02 01:54:53;;;;;;;3.70;2.28;;;;;;;;;;4434633;32;20319;-83
2022/08/02 01:57:22;;;;;;;4.68;2.45;;;;;;;;;;4448485;32;20230;-85
2022/08/02 01:59:50;;;;;;;5.93;2.40;;;;;;;;;;4447182;32;20228;-86
2022/08/02 02:02:18;;;;;;;5.90;2.90;;;;;;;;;;4448248;32;20295;-86
2022/08/02 02:04:45;;;;;;;4.75;3.00;;;;;;;;;;4448454;32;20216;-85
2022/08/02 02:07:14;;;;;;;8.23;2.92;;;;;;;;;;4447963;32;20475;-84
2022/08/02 02:09:41;;;;;;;4.68;2.62;;;;;;;;;;4447593;32;20259;-84
2022/08/02 02:12:10;;;;;;;13.10;2.65;;;;;;;;;;4447936;32;20246;-87
2022/08/02 02:14:37;;;;;;;9.25;2.30;;;;;;;;;;4446920;32;20331;-86
2022/08/02 02:17:04;;;;;;;3.97;2.30;;;;;;;;;;4448079;32;20672;-84
2022/08/02 02:19:33;;;;;;;6.90;3.00;;;;;;;;;;4446719;32;20291;-87
2022/08/02 02:21:58;;;;;;;3.35;2.45;;;;;;;;;;4447835;32;20566;-88
2022/08/02 02:24:26;;;;;;;4.43;3.17;;;;;;;;;;4447272;32;20235;-86
2022/08/02 02:26:52;;;;;;;6.50;2.58;;;;;;;;;;4433706;32;20335;-85
2022/08/02 02:29:20;;;;;;;3.90;2.87;;;;;;;;;;4447701;32;20232;-84
2022/08/02 02:31:48;;;;;;;5.45;2.35;;;;;;;;;;4447529;32;20303;-84
2022/08/02 02:34:16;;;;;;;5.03;2.92;;;;;;;;;;4446281;32;20295;-86
2022/08/02 02:36:48;;;;;;;3.75;2.00;;;;;;;;;;4445818;32;20248;-84
2022/08/02 02:39:17;;;;;;;6.90;2.33;;;;;;;;;;4446011;32;20635;-83
2022/08/02 02:41:43;;;;;;;4.25;2.40;;;;;;;;;;4447855;32;20607;-85
2022/08/02 02:44:15;;;;;;;3.30;2.85;;;;;;;;;;4447419;32;20238;-83
2022/08/02 02:46:41;;;;;;;9.75;2.70;;;;;;;;;;4447980;32;20200;-84
2022/08/02 02:49:10;;;;;;;6.47;2.70;;;;;;;;;;4447243;32;20326;-83
2022/08/02 02:51:40;;;;;;;3.37;2.65;;;;;;;;;;4447266;32;20390;-83
2022/08/02 02:54:08;;;;;;;6.25;2.60;;;;;;;;;;4447361;32;20318;-82
2022/08/02 02:56:35;;;;;;;3.70;2.28;;;;;;;;;;4447527;32;20541;-83
2022/08/02 02:59:02;;;;;;;4.47;2.60;;;;;;;;;;4447311;32;20248;-87
2022/08/02 03:01:29;;;;;;;12.50;2.50;;;;;;;;;;4447184;32;20221;-87
2022/08/02 03:03:57;;;;;;;3.70;2.30;;;;;;;;;;4447227;32;20254;-83
2022/08/02 03:06:23;;;;;;;4.72;2.47;;;;;;;;;;4446203;32;20212;-85
2022/08/02 03:08:49;;;;;;;4.55;2.72;;;;;;;;;;4446507;32;20256;-83
2022/08/02 03:11:15;;;;;;;4.10;3.10;;;;;;;;;;4447041;32;20263;-85
2022/08/02 03:13:41;;;;;;;4.43;3.00;;;;;;;;;;4447104;32;20240;-84
2022/08/02 03:16:06;;;;;;;4.97;3.28;;;;;;;;;;4445753;32;20333;-82
2022/08/02 03:18:37;;;;;;;5.20;3.33;;;;;;;;;;4445968;32;20311;-84
2022/08/02 03:21:05;;;;;;;4.25;3.15;;;;;;;;;;4447205;32;20219;-83
2022/08/02 03:23:31;;;;;;;6.35;2.55;;;;;;;;;;4446531;32;20276;-84
2022/08/02 03:25:57;;;;;;;5.90;3.47;;;;;;;;;;4445702;32;20308;-88
2022/08/02 03:28:23;;;;;;;10.05;2.90;;;;;;;;;;4446919;32;20616;-84
2022/08/02 03:30:49;;;;;;;5.03;3.20;;;;;;;;;;4447184;32;21071;-84
2022/08/02 03:33:14;;;;;;;4.28;3.25;;;;;;;;;;4447013;32;20379;-85
2022/08/02 03:35:42;;;;;;;7.05;3.33;;;;;;;;;;4447074;32;20197;-84
2022/08/02 03:38:12;;;;;;;10.35;3.83;;;;;;;;;;4446360;32;20655;-85
2022/08/02 03:40:38;;;;;;;11.68;3.50;;;;;;;;;;4446728;32;20216;-83
2022/08/02 03:43:04;;;;;;;6.25;3.03;;;;;;;;;;4445487;32;20600;-84
2022/08/02 03:45:31;;;;;;;3.30;2.83;;;;;;;;;;4445479;32;20278;-84
2022/08/02 03:47:57;;;;;;;6.35;3.25;;;;;;;;;;4446135;32;20335;-83
2022/08/02 03:50:24;;;;;;;4.72;2.90;;;;;;;;;;4446939;32;20271;-84
2022/08/02 03:52:50;;;;;;;3.28;2.90;;;;;;;;;;4445925;32;20255;-84
2022/08/02 03:55:18;;;;;;;8.65;3.22;;;;;;;;;;4446544;32;20291;-84
2022/08/02 03:57:45;;;;;;;10.65;3.20;;;;;;;;;;4446999;32;20236;-82
2022/08/02 04:00:16;;;;;;;7.03;2.83;;;;;;;;;;4446296;32;20322;-86
2022/08/02 04:02:43;;;;;;;3.45;3.03;;;;;;;;;;4446919;32;20287;-83
2022/08/02 04:05:09;;;;;;;3.92;2.95;;;;;;;;;;4446785;32;20261;-83
2022/08/02 04:07:35;;;;;;;6.47;2.87;;;;;;;;;;4446013;32;20778;-83
2022/08/02 04:10:00;;;;;;;4.53;3.22;;;;;;;;;;4445437;32;20228;-84
2022/08/02 04:12:26;;;;;;;12.02;3.35;;;;;;;;;;4446424;32;20325;-84
2022/08/02 04:14:51;;;;;;;3.25;2.80;;;;;;;;;;4446547;32;20224;-82
2022/08/02 04:17:19;;;;;;;5.50;3.35;;;;;;;;;;4446624;32;20216;-83
2022/08/02 04:19:57;;;;;;;6.00;3.90;;;;;;;;;;4446508;32;20246;-83
2022/08/02 04:22:28;;;;;;;8.73;3.78;;;;;;;;;;4445920;32;20220;-83
2022/08/02 04:24:57;;;;;;;10.20;3.35;;;;;;;;;;4430134;32;20216;-83
2022/08/02 04:27:23;;;;;;;5.80;3.47;;;;;;;;;;4430863;32;20765;-83
2022/08/02 04:29:51;;;;;;;7.00;3.30;;;;;;;;;;4439200;32;20213;-82
2022/08/02 04:32:17;;;;;;;6.95;3.90;;;;;;;;;;4446526;32;20463;-85
2022/08/02 04:34:44;;;;;;;6.85;2.97;;;;;;;;;;4445442;32;20229;-84
2022/08/02 04:37:11;;;;;;;5.90;3.58;;;;;;;;;;4445968;32;20248;-86
2022/08/02 04:39:39;;;;;;;5.80;3.60;;;;;;;;;;4446555;32;20348;-83
2022/08/02 04:42:05;;;;;;;6.40;4.12;;;;;;;;;;4446622;32;20204;-85
2022/08/02 04:44:30;;;;;;;4.47;3.30;;;;;;;;;;4446041;32;20232;-83
2022/08/02 04:46:58;;;;;;;4.80;3.20;;;;;;;;;;4446223;32;20663;-83
2022/08/02 04:49:25;;;;;;;7.93;3.12;;;;;;;;;;4447092;32;20232;-83
2022/08/02 04:51:50;;;;;;;7.05;2.83;;;;;;;;;;4446598;32;20232;-81
2022/08/02 04:54:16;;;;;;;8.40;3.25;;;;;;;;;;4447209;32;20308;-82
2022/08/02 04:56:41;;;;;;;5.80;2.87;;;;;;;;;;4448447;32;20223;-83
2022/08/02 04:59:08;;;;;;;4.28;3.00;;;;;;;;;;4449369;32;20295;-83
2022/08/02 05:01:34;;;;;;;8.32;2.90;;;;;;;;;;4447357;32;20221;-84
2022/08/02 05:04:00;;;;;;;3.72;3.00;;;;;;;;;;4446721;32;20755;-85
2022/08/02 05:06:27;;;;;;;6.03;3.35;;;;;;;;;;4446332;32;20359;-83
2022/08/02 05:08:53;;;;;;;10.07;3.53;;;;;;;;;;4445213;32;20232;-82
2022/08/02 05:11:20;;;;;;;8.13;3.00;;;;;;;;;;4447046;32;20635;-83
2022/08/02 05:13:45;;;;;;;5.82;3.35;;;;;;;;;;4449465;32;20285;-84
2022/08/02 05:16:11;;;;;;;5.20;3.42;;;;;;;;;;4451169;32;20236;-84
2022/08/02 05:18:36;;;;;;;6.30;3.33;;;;;;;;;;4451146;32;20277;-84
2022/08/02 05:21:02;;;;;;;9.23;3.60;;;;;;;;;;4449293;32;20207;-85
2022/08/02 05:23:28;;;;;;;5.45;3.15;;;;;;;;;;4445849;32;20240;-85
2022/08/02 05:25:53;;;;;;;4.43;3.15;;;;;;;;;;4446629;32;20258;-86
2022/08/02 05:28:19;;;;;;;6.18;3.80;;;;;;;;;;4447396;32;20278;-84
2022/08/02 05:30:45;;;;;;;8.13;3.47;;;;;;;;;;4446878;32;20216;-86
2022/08/02 05:33:10;;;;;;;5.55;3.00;;;;;;;;;;4447219;32;20964;-85
2022/08/02 05:35:36;;;;;;;7.20;3.58;;;;;;;;;;4448280;32;20272;-92
2022/08/02 05:38:01;;;;;;;10.23;3.15;;;;;;;;;;4449797;32;20721;-91
2022/08/02 05:40:27;;;;;;;4.37;3.17;;;;;;;;;;4449177;32;20242;-91
2022/08/02 05:42:53;;;;;;;13.85;3.60;;;;;;;;;;4449919;32;20217;-90
2022/08/02 05:45:19;;;;;;;6.05;3.00;;;;;;;;;;4449239;32;20250;-91
2022/08/02 05:47:44;;;;;;;4.55;2.80;;;;;;;;;;4449507;32;20687;-92
2022/08/02 05:50:10;;;;;;;4.65;3.08;;;;;;;;;;4448891;32;20219;-87
2022/08/02 05:52:38;;;;;;;8.35;2.95;;;;;;;;;;4444688;32;20368;-90
2022/08/02 05:55:14;;;;;;;5.82;3.00;;;;;;;;;;4433183;32;20309;-89
2022/08/02 05:57:53;;;;;;;6.32;3.58;;;;;;;;;;4433850;32;20250;-93
2022/08/02 06:00:20;;;;;;;8.30;3.17;;;;;;;;;;4433833;32;20559;-84
2022/08/02 06:03:01;;;;;;;23.92;5.65;;;;;;;;;;4432258;32;20319;-82
2022/08/02 06:05:34;;;;;;;19.27;6.97;;;;;;;;;;4430913;32;20206;-87
2022/08/02 06:08:01;;;;;;;13.60;4.22;;;;;;;;;;4430004;32;20311;-87
2022/08/02 06:10:29;;;;;;;13.38;5.00;;;;;;;;;;4430046;32;20307;-89
2022/08/02 06:13:10;;;;;;;8.65;3.75;;;;;;;;;;4429360;32;20271;-87
2022/08/02 06:15:37;;;;;;;7.55;4.82;;;;;;;;;;4430181;32;20530;-87
2022/08/02 06:18:03;;;;;;;11.90;4.18;;;;;;;;;;4431206;32;20329;-87
2022/08/02 06:20:34;;;;;;;7.03;3.97;;;;;;;;;;4430931;32;20676;-90
2022/08/02 06:23:05;;;;;;;14.20;4.47;;;;;;;;;;4443447;32;20216;-86
2022/08/02 06:25:35;;;;;;;5.12;3.28;;;;;;;;;;4448142;32;20274;-84
2022/08/02 06:28:05;;;;;;;6.78;3.08;;;;;;;;;;4446755;32;20230;-84
2022/08/02 06:30:31;;;;;;;11.48;4.00;;;;;;;;;;4447812;32;20267;-90
2022/08/02 06:32:58;;;;;;;8.65;3.37;;;;;;;;;;4449043;32;20281;-87
2022/08/02 06:35:33;;;;;;;6.62;3.62;;;;;;;;;;4449785;32;20304;-91
2022/08/02 06:38:00;;;;;;;9.05;3.65;;;;;;;;;;4447321;32;20200;-90
2022/08/02 06:40:42;;;;;;;5.28;3.33;;;;;;;;;;4448668;32;20287;-90
2022/08/02 06:43:22;;;;;;;8.73;3.65;;;;;;;;;;4448930;32;20272;-91
2022/08/02 06:45:48;;;;;;;4.28;3.30;;;;;;;;;;4448116;32;20562;-80
2022/08/02 06:48:13;;;;;;;8.25;3.70;;;;;;;;;;4447740;32;20277;-79
2022/08/02 06:50:40;;;;;;;7.37;3.17;;;;;;;;;;4446953;32;20703;-81
2022/08/02 06:53:07;;;;;;;5.55;3.58;;;;;;;;;;4446246;32;20420;-81
2022/08/02 06:55:32;;;;;;;12.20;3.62;;;;;;;;;;4446201;32;20295;-81
2022/08/02 06:57:59;;;;;;;5.00;3.42;;;;;;;;;;4447286;32;20223;-81
2022/08/02 07:00:25;;;;;;;7.95;3.30;;;;;;;;;;4445870;32;20308;-80
2022/08/02 07:02:50;;;;;;;4.82;3.40;;;;;;;;;;4445627;32;20204;-82
2022/08/02 07:05:16;;;;;;;5.68;3.03;;;;;;;;;;4445616;32;20236;-81
2022/08/02 07:07:42;;;;;;;5.87;3.25;;;;;;;;;;4444145;32;20208;-83
2022/08/02 07:10:07;;;;;;;4.03;3.45;;;;;;;;;;4444265;32;20293;-80
2022/08/02 07:12:34;;;;;;;7.53;3.12;;;;;;;;;;4445967;32;20719;-80
2022/08/02 07:15:01;;;;;;;6.37;3.17;;;;;;;;;;4445868;32;21166;-85
2022/08/02 07:17:28;;;;;;;5.40;3.03;;;;;;;;;;4433158;32;20367;-85
2022/08/02 07:19:53;;;;;;;13.30;3.28;;;;;;;;;;4447161;32;20209;-85
2022/08/02 07:22:22;;;;;;;8.52;3.15;;;;;;;;;;4446491;32;20217;-81
2022/08/02 07:24:47;;;;;;;6.95;2.80;;;;;;;;;;4446771;32;20275;-82
2022/08/02 07:27:13;;;;;;;5.10;2.90;;;;;;;;;;4447034;32;20200;-83
2022/08/02 07:29:40;;;;;;;7.60;3.10;;;;;;;;;;4446865;32;20204;-81
2022/08/02 07:32:05;;;;;;;6.25;3.42;;;;;;;;;;4446518;32;20276;-88
2022/08/02 07:34:31;;;;;;;5.50;2.92;;;;;;;;;;4445644;32;20269;-85
2022/08/02 07:36:57;;;;;;;3.85;2.67;;;;;;;;;;4446423;32;20753;-84
2022/08/02 07:39:22;;;;;;;39.25;3.60;;;;;;;;;;4446924;32;20417;-85
2022/08/02 07:41:50;;;;;;;14.73;3.08;;;;;;;;;;4446709;32;20246;-81
2022/08/02 07:44:17;;;;;;;13.70;3.00;;;;;;;;;;4446178;32;20362;-82
2022/08/02 07:46:45;;;;;;;5.18;2.85;;;;;;;;;;4447032;32;20255;-82
2022/08/02 07:49:12;;;;;;;6.90;3.45;;;;;;;;;;4446729;32;20289;-81
2022/08/02 07:51:38;;;;;;;7.65;2.90;;;;;;;;;;4445789;32;20224;-80
2022/08/02 07:54:04;;;;;;;3.53;2.15;;;;;;;;;;4446587;32;20506;-80
2022/08/02 07:56:29;;;;;;;23.05;3.67;;;;;;;;;;4446358;32;20228;-82
2022/08/02 07:58:55;;;;;;;11.02;2.30;;;;;;;;;;4446689;32;20425;-81
2022/08/02 08:01:20;;;;;;;7.25;2.92;;;;;;;;;;4446631;32;20266;-81
2022/08/02 08:03:46;;;;;;;7.25;2.03;;;;;;;;;;4445920;32;20942;-82
2022/08/02 08:06:11;;;;;;;3.12;1.30;;;;;;;;;;4446352;32;20347;-85
2022/08/02 08:08:37;;;;;;;9.88;1.62;;;;;;;;;;4445206;32;20240;-85
2022/08/02 08:11:02;;;;;;;1.50;1.27;;;;;;;;;;4446189;32;20224;-80
2022/08/02 08:13:28;;;;;;;3.42;1.17;;;;;;;;;;4446208;32;20205;-80
2022/08/02 08:15:55;;;;;;;2.17;1.20;;;;;;;;;;4445894;32;20694;-82
2022/08/02 08:18:21;;;;;;;1.70;1.60;;;;;;;;;;4446944;32;20238;-81
2022/08/02 08:20:46;;;;;;;2.03;1.50;;;;;;;;;;4445211;32;20992;-87
2022/08/02 08:23:12;;;;;;;21.35;13.15;;;;;;;;;;4446742;32;20261;-84
2022/08/02 08:25:38;;;;;;;4.87;2.58;;;;;;;;;;4446849;32;20225;-86
2022/08/02 08:28:05;;;;;;;6.47;3.05;;;;;;;;;;4446382;32;20347;-86
2022/08/02 08:30:31;;;;;;;5.37;3.87;;;;;;;;;;4447118;32;20224;-86
2022/08/02 08:32:57;;;;;;;5.45;2.75;;;;;;;;;;4446915;32;20244;-85
2022/08/02 08:35:25;;;;;;;2.12;1.40;;;;;;;;;;4445066;32;20699;-81
2022/08/02 08:37:51;;;;;;;4.62;1.98;;;;;;;;;;4446753;32;20223;-82
2022/08/02 08:40:18;;;;;;;1.90;1.40;;;;;;;;;;4445989;32;20304;-80
2022/08/02 08:42:43;;;;;;;2.95;1.30;;;;;;;;;;4445421;32;20686;-82
2022/08/02 08:45:09;;;;;;;3.53;1.20;;;;;;;;;;4446508;32;20239;-82
2022/08/02 08:47:40;;;;;;;2.97;1.30;;;;;;;;;;4449490;32;20235;-81
2022/08/02 08:50:29;;;;;;;3.35;1.00;;;;;;;;;;4448810;32;20398;-80
2022/08/02 08:53:03;;;;;;;2.58;1.00;;;;;;;;;;4448642;32;20220;-85
2022/08/02 08:55:32;;;;;;;10.05;1.70;;;;;;;;;;4449321;32;20231;-81
2022/08/02 08:58:00;;;;;;;6.78;1.30;;;;;;;;;;4448806;32;20981;-85
2022/08/02 09:00:29;;;;;;;4.35;1.27;;;;;;;;;;4449453;32;20240;-79
2022/08/02 09:02:55;;;;;;;1.33;1.08;;;;;;;;;;4447031;32;20320;-79
2022/08/02 09:05:21;;;;;;;5.05;1.17;;;;;;;;;;4445704;32;20641;-80
2022/08/02 09:07:48;;;;;;;0.85;0.80;;;;;;;;;;4448708;32;20296;-81
2022/08/02 09:10:37;;;;;;;1.12;0.90;;;;;;;;;;4443992;32;20204;-81
2022/08/02 09:13:05;;;;;;;1.23;0.93;;;;;;;;;;4433836;32;20265;-81
2022/08/02 09:15:31;;;;;;;1.95;0.93;;;;;;;;;;4433741;32;20243;-81
2022/08/02 09:17:57;;;;;;;2.42;1.20;;;;;;;;;;4432272;32;20569;-80
2022/08/02 09:20:24;;;;;;;3.75;2.90;;;;;;;;;;4433222;32;20669;-80
2022/08/02 09:23:10;;;;;;;1.65;1.00;;;;;;;;;;4432903;32;20603;-80
2022/08/02 09:25:36;;;;;;;3.65;1.10;;;;;;;;;;4433481;32;20296;-80
2022/08/02 09:28:04;;;;;;;1.45;0.95;;;;;;;;;;4433205;32;20414;-87
2022/08/02 09:30:30;;;;;;;3.12;0.73;;;;;;;;;;4433052;32;20204;-85
2022/08/02 09:32:57;;;;;;;1.48;0.80;;;;;;;;;;4433497;32;20315;-84
2022/08/02 09:35:41;;;;;;;2.85;1.30;;;;;;;;;;4432503;32;20225;-81
2022/08/02 09:38:13;;;;;;;2.70;1.37;;;;;;;;;;4433116;32;20443;-80
2022/08/02 09:40:40;;;;;;;4.65;2.83;;;;;;;;;;4433183;32;20414;-81
2022/08/02 09:43:07;;;;;;;1.12;0.90;;;;;;;;;;4432782;32;20225;-80
2022/08/02 09:45:35;;;;;;;1.42;1.10;;;;;;;;;;4433000;32;20224;-80
2022/08/02 09:48:11;;;;;;;1.73;1.00;;;;;;;;;;4432868;32;20761;-79
2022/08/02 09:50:38;;;;;;;5.95;1.40;;;;;;;;;;4425215;32;20753;-79
2022/08/02 09:53:04;;;;;;;1.67;1.08;;;;;;;;;;4448135;32;20245;-80
2022/08/02 09:55:30;;;;;;;1.35;0.90;;;;;;;;;;4447160;32;20670;-81
2022/08/02 09:57:56;;;;;;;1.37;1.00;;;;;;;;;;4447531;32;20363;-85
2022/08/02 10:00:22;;;;;;;0.85;0.80;;;;;;;;;;4447612;32;20217;-84
2022/08/02 10:03:07;;;;;;;1.17;1.00;;;;;;;;;;4449729;32;20232;-86
2022/08/02 10:05:57;;;;;;;0.85;0.70;;;;;;;;;;4447978;32;20353;-83
2022/08/02 10:08:24;;;;;;;3.10;1.00;;;;;;;;;;4446637;32;20575;-84
2022/08/02 10:10:59;;;;;;;4.45;1.00;;;;;;;;;;4447846;32;20344;-84
2022/08/02 10:13:33;;;;;;;1.67;0.90;;;;;;;;;;4448538;32;20235;-85
2022/08/02 10:16:01;;;;;;;1.33;0.95;;;;;;;;;;4448007;32;20228;-86
2022/08/02 10:18:27;;;;;;;4.10;0.60;;;;;;;;;;4448369;32;20275;-84
2022/08/02 10:20:54;;;;;;;3.22;0.98;;;;;;;;;;4446199;32;20254;-84
2022/08/02 10:23:21;;;;;;;2.25;1.42;;;;;;;;;;4447555;32;20217;-85
2022/08/02 10:25:49;;;;;;;1.80;0.90;;;;;;;;;;4447487;32;20367;-80
2022/08/02 10:28:17;;;;;;;4.37;1.02;;;;;;;;;;4447825;32;20212;-81
2022/08/02 10:30:47;;;;;;;3.70;0.90;;;;;;;;;;4447105;32;20259;-80
2022/08/02 10:33:17;;;;;;;1.20;1.00;;;;;;;;;;4446439;32;20872;-80
2022/08/02 10:35:46;;;;;;;1.65;0.90;;;;;;;;;;4447156;32;20229;-79
2022/08/02 10:38:12;;;;;;;1.58;1.42;;;;;;;;;;4447389;32;20226;-80
2022/08/02 10:40:48;;;;;;;2.10;1.20;;;;;;;;;;4447664;32;20241;-85
2022/08/02 10:43:34;;;;;;;0.88;0.60;;;;;;;;;;4447872;32;20757;-85
2022/08/02 10:46:32;;;;;;;3.40;0.70;;;;;;;;;;4447892;32;20312;-85
2022/08/02 10:49:13;;;;;;;3.65;0.65;;;;;;;;;;4447699;32;20196;-84
2022/08/02 10:51:50;;;;;;;0.80;0.65;;;;;;;;;;4447034;32;20273;-85
2022/08/02 10:54:22;;;;;;;1.73;0.77;;;;;;;;;;4447839;32;20298;-79
2022/08/02 10:56:49;;;;;;;0.75;0.68;;;;;;;;;;4446253;32;20283;-80
2022/08/02 10:59:29;;;;;;;0.80;0.70;;;;;;;;;;4447320;32;20231;-84
2022/08/02 11:02:03;;;;;;;1.37;0.93;;;;;;;;;;4447433;32;20276;-85
2022/08/02 11:04:48;;;;;;;0.77;0.77;;;;;;;;;;4446717;32;20217;-87
2022/08/02 11:07:16;;;;;;;2.60;1.35;;;;;;;;;;4413733;32;20298;-85
2022/08/02 11:09:49;;;;;;;0.73;0.73;;;;;;;;;;4413239;32;20221;-87
2022/08/02 11:12:19;;;;;;;4.47;0.73;;;;;;;;;;4401657;32;20229;-79
2022/08/02 11:15:05;;;;;;;3.62;0.80;;;;;;;;;;4413953;32;20577;-80
2022/08/02 11:17:57;;;;;;;1.05;0.85;;;;;;;;;;4414087;32;20245;-86
2022/08/02 11:20:24;;;;;;;3.70;0.85;;;;;;;;;;4413119;32;20776;-83
2022/08/02 11:22:51;;;;;;;0.98;0.70;;;;;;;;;;4413483;32;20217;-80
2022/08/02 11:25:22;;;;;;;1.30;0.80;;;;;;;;;;4413420;32;20272;-80
2022/08/02 11:27:56;;;;;;;1.10;0.68;;;;;;;;;;4413754;32;20346;-81
2022/08/02 11:30:25;;;;;;;3.03;1.12;;;;;;;;;;4413456;32;20433;-84
2022/08/02 11:32:55;;;;;;;2.03;1.20;;;;;;;;;;4413555;32;20253;-88
2022/08/02 11:35:21;;;;;;;0.77;0.77;;;;;;;;;;4413047;32;20257;-86
2022/08/02 11:37:47;;;;;;;1.17;0.90;;;;;;;;;;4423092;32;20644;-80
2022/08/02 11:40:16;;;;;;;0.80;0.80;;;;;;;;;;4445031;32;20232;-80
2022/08/02 11:42:44;;;;;;;2.10;0.82;;;;;;;;;;4445096;32;20263;-80
2022/08/02 11:45:12;;;;;;;0.82;0.60;;;;;;;;;;4445299;32;20283;-79
2022/08/02 11:47:51;;;;;;;0.73;0.73;;;;;;;;;;4446644;32;20306;-80
2022/08/02 11:50:19;;;;;;;0.62;0.62;;;;;;;;;;4445952;32;20300;-79
2022/08/02 11:52:45;;;;;;;2.87;1.05;;;;;;;;;;4445988;32;20296;-80
2022/08/02 11:55:12;;;;;;;0.90;0.62;;;;;;;;;;4444771;32;20262;-80
2022/08/02 11:57:39;;;;;;;0.60;0.60;;;;;;;;;;4446085;32;20333;-80
2022/08/02 12:00:15;;;;;;;1.42;0.70;;;;;;;;;;4445598;32;20212;-79
2022/08/02 12:02:47;;;;;;;1.10;0.80;;;;;;;;;;4446128;32;20227;-81
2022/08/02 12:05:19;;;;;;;1.40;0.85;;;;;;;;;;4445706;32;20260;-78
2022/08/02 12:07:45;;;;;;;1.98;0.80;;;;;;;;;;4446249;32;20552;-78
2022/08/02 12:10:20;;;;;;;0.90;0.70;;;;;;;;;;4445605;32;20227;-78
2022/08/02 12:12:52;;;;;;;0.75;0.70;;;;;;;;;;4447058;32;20222;-79
2022/08/02 12:15:41;;;;;;;1.30;0.88;;;;;;;;;;4446011;32;20244;-79
2022/08/02 12:21:01;;;;;;;1.55;0.62;;;;;;;;;;4445230;32;20246;-80
2022/08/02 12:23:27;;;;;;;0.60;0.60;;;;;;;;;;4445794;32;20305;-80
2022/08/02 12:26:05;;;;;;;1.55;0.70;;;;;;;;;;4446011;32;20276;-82
2022/08/02 12:28:34;;;;;;;1.55;0.70;;;;;;;;;;4444724;32;20254;-82
2022/08/02 12:31:00;;;;;;;0.70;0.70;;;;;;;;;;4444548;32;20684;-81
2022/08/02 12:33:44;;;;;;;1.60;0.70;;;;;;;;;;4446223;32;20301;-82
2022/08/02 12:36:17;;;;;;;2.15;0.70;;;;;;;;;;4445801;32;20805;-83
2022/08/02 12:38:50;;;;;;;0.75;0.70;;;;;;;;;;4445802;32;20231;-82
2022/08/02 12:41:18;;;;;;;0.70;0.70;;;;;;;;;;4445681;32;20256;-82
2022/08/02 12:43:44;;;;;;;1.05;0.70;;;;;;;;;;4446052;32;20232;-83
2022/08/02 12:46:22;;;;;;;1.00;0.70;;;;;;;;;;4445953;32;20255;-82
2022/08/02 12:48:50;;;;;;;1.40;0.68;;;;;;;;;;4445673;32;20251;-82
2022/08/02 12:51:25;;;;;;;2.35;0.88;;;;;;;;;;4445913;32;20247;-82
2022/08/02 12:53:52;;;;;;;2.58;0.65;;;;;;;;;;4444765;32;20706;-82
2022/08/02 12:56:32;;;;;;;2.35;0.62;;;;;;;;;;4444661;32;20232;-82
2022/08/02 12:58:58;;;;;;;2.75;0.93;;;;;;;;;;4432104;32;20396;-82
2022/08/02 13:08:32;;;;;;;2.00;0.90;;;;;;;;;;4459717;31;20749;-81
2022/08/02 13:10:58;;;;;;;1.58;0.80;;;;;;;;;;4469855;32;20330;-82
2022/08/02 13:13:23;;;;;;;3.33;0.70;;;;;;;;;;4459355;32;20388;-81
2022/08/02 13:15:50;;;;;;;1.20;1.00;;;;;;;;;;4459517;32;20209;-81
2022/08/02 13:18:17;;;;;;;0.60;0.60;;;;;;;;;;4459197;32;20266;-81
2022/08/02 13:20:42;;;;;;;12.50;1.02;;;;;;;;;;4459443;32;20200;-81
2022/08/02 13:23:08;;;;;;;3.70;0.95;;;;;;;;;;4459250;32;20291;-81
2022/08/02 13:25:33;;;;;;;1.10;0.70;;;;;;;;;;4459604;32;20301;-81
2022/08/02 13:28:00;;;;;;;0.60;0.60;;;;;;;;;;4459295;32;20224;-81
2022/08/02 13:30:25;;;;;;;1.65;0.88;;;;;;;;;;4444582;32;20267;-82
2022/08/02 13:32:51;;;;;;;2.37;0.90;;;;;;;;;;4458840;32;20251;-82
2022/08/02 13:35:16;;;;;;;1.08;0.88;;;;;;;;;;4459308;32;20208;-81
2022/08/02 13:37:43;;;;;;;1.52;0.73;;;;;;;;;;4459324;32;20220;-81
2022/08/02 13:40:09;;;;;;;0.70;0.70;;;;;;;;;;4459255;32;20314;-84
2022/08/02 13:42:34;;;;;;;1.92;1.10;;;;;;;;;;4458974;32;20224;-83
2022/08/02 13:45:00;;;;;;;0.82;0.77;;;;;;;;;;4459085;32;20246;-83
2022/08/02 13:47:25;;;;;;;6.00;0.80;;;;;;;;;;4459234;32;20235;-84
2022/08/02 13:49:51;;;;;;;0.70;0.70;;;;;;;;;;4456937;32;20254;-84
2022/08/02 13:52:16;;;;;;;1.23;0.98;;;;;;;;;;4444294;32;20605;-88
2022/08/02 13:54:42;;;;;;;0.82;0.77;;;;;;;;;;4459039;32;20278;-86
2022/08/02 13:57:07;;;;;;;4.65;1.25;;;;;;;;;;4444790;32;20302;-86
2022/08/02 13:59:33;;;;;;;4.53;0.90;;;;;;;;;;4459084;32;20314;-82
2022/08/02 14:01:59;;;;;;;2.85;0.85;;;;;;;;;;4458784;32;20553;-82
2022/08/02 14:04:24;;;;;;;4.18;0.80;;;;;;;;;;4458968;32;20254;-82
2022/08/02 14:06:50;;;;;;;3.85;1.10;;;;;;;;;;4458992;32;20649;-82
2022/08/02 14:09:16;;;;;;;1.08;0.77;;;;;;;;;;4458785;32;20286;-82
2022/08/02 14:11:42;;;;;;;2.75;1.45;;;;;;;;;;4454089;32;20327;-83
2022/08/02 14:14:07;;;;;;;4.18;1.40;;;;;;;;;;4457598;32;20323;-83
2022/08/02 14:16:34;;;;;;;2.25;1.15;;;;;;;;;;4451279;32;20714;-84
2022/08/02 14:18:59;;;;;;;1.35;0.82;;;;;;;;;;4436709;32;20282;-84
2022/08/02 14:21:25;;;;;;;1.87;1.02;;;;;;;;;;4431234;32;20213;-83
2022/08/02 14:23:50;;;;;;;4.93;1.20;;;;;;;;;;4431219;32;20282;-84
2022/08/02 14:26:16;;;;;;;2.42;0.70;;;;;;;;;;4416923;32;20316;-84
2022/08/02 14:28:42;;;;;;;1.10;1.00;;;;;;;;;;4432326;32;20617;-84
2022/08/02 14:31:08;;;;;;;1.15;1.00;;;;;;;;;;4432744;32;20258;-84
2022/08/02 14:33:33;;;;;;;1.08;0.98;;;;;;;;;;4432315;32;20304;-82
2022/08/02 14:35:59;;;;;;;1.92;1.30;;;;;;;;;;4432759;32;20196;-82
2022/08/02 14:38:24;;;;;;;1.75;0.90;;;;;;;;;;4432970;32;20228;-82
2022/08/02 14:40:50;;;;;;;3.22;1.40;;;;;;;;;;4432816;32;20320;-83
2022/08/02 14:45:59;;;;;;;1.73;1.10;;;;;;;;;;4432074;32;20254;-83
2022/08/02 14:48:25;;;;;;;1.40;0.70;;;;;;;;;;4439589;32;20240;-83
2022/08/02 14:50:50;;;;;;;1.23;0.93;;;;;;;;;;4447853;32;20212;-83
2022/08/02 14:53:16;;;;;;;1.92;1.02;;;;;;;;;;4447458;32;20201;-82
2022/08/02 14:55:42;;;;;;;1.50;1.00;;;;;;;;;;4433660;32;20255;-82
2022/08/02 14:58:08;;;;;;;1.30;0.82;;;;;;;;;;4447724;32;20216;-82
2022/08/02 15:00:33;;;;;;;1.58;0.65;;;;;;;;;;4447672;32;20358;-82
2022/08/02 15:02:59;;;;;;;6.12;1.15;;;;;;;;;;4447191;32;20608;-82